Flight Track Log - Related Links

Times and Time Zones

All times are in EDT time to prevent confusion due to time zone crossing. See the AAL919 flight status page for this flight to view local times or setup timezone preferences in your user account.

Time Position Orientation Groundspeed Altitude Reporting Facility
EDT Latitude Longitude Course Direction KTS MPH feet Rate Location/Type
Tue 07:00:27 AM 32.8833 -97.0333 84° East 164 189 1,300  Level Dallas / Fort Worth TRACON
Tue 07:01:33 AM 32.8333 -97.0333 180° South 229 264 3,200 2,190 Climbing Dallas / Fort Worth TRACON
Tue 07:02:00 AM 32.6849 -96.9413 103° East  Level FlightAware Approximate
Tue 07:02:33 AM 32.7667 -96.9833 148° Southeast 279 321 5,900  Level Dallas / Fort Worth TRACON
Tue 07:03:00 AM 32.6833 -96.7936 90° East  Level FlightAware Approximate
Tue 07:03:33 AM 32.7667 -96.9000 90° East 281 323 8,500  Level Dallas / Fort Worth TRACON
Tue 07:04:00 AM 32.7086 -96.6489 77° East  Level FlightAware Approximate
Tue 07:05:00 AM 32.7344 -96.5042 84° East  Level FlightAware Approximate
Tue 07:05:25 AM 32.7689 -96.7292 89° East 319 367 11,500  Level Fort Worth Center
Tue 07:06:25 AM 32.7661 -96.6056 91° East 332 382 13,400 1,850 Climbing Fort Worth Center
Tue 07:07:25 AM 32.7633 -96.5019 92° East 348 400 15,200 1,800 Climbing Fort Worth Center
Tue 07:08:25 AM 32.7622 -96.3708 91° East 348 400 17,000 1,700 Climbing Fort Worth Center
Tue 07:09:25 AM 32.7489 -96.2622 98° East 359 413 18,600 1,600 Climbing Fort Worth Center
Tue 07:10:25 AM 32.7328 -96.1242 98° East 371 427 20,200 1,500 Climbing Fort Worth Center
Tue 07:11:25 AM 32.7336 -96.0106 89° East 377 434 21,600 1,500 Climbing Fort Worth Center
Tue 07:12:25 AM 32.7300 -95.8675 92° East 389 448 23,200 1,500 Climbing Fort Worth Center
Tue 07:13:25 AM 32.7303 -95.7317 90° East 400 460 24,600 1,350 Climbing Fort Worth Center
Tue 07:14:25 AM 32.7283 -95.5933 91° East 405 466 25,900 1,250 Climbing Fort Worth Center
Tue 07:15:25 AM 32.7242 -95.4553 92° East 405 466 27,100 1,200 Climbing Fort Worth Center
Tue 07:16:25 AM 32.7219 -95.3119 91° East 415 478 28,300 1,050 Climbing Fort Worth Center
Tue 07:17:25 AM 32.7197 -95.1811 91° East 427 491 29,200 950 Climbing Fort Worth Center
Tue 07:18:25 AM 32.7150 -95.0331 92° East 438 504 30,200 1,200 Climbing Fort Worth Center
Tue 07:19:25 AM 32.7100 -94.8853 92° East 444 511 31,600 1,450 Climbing Fort Worth Center
Tue 07:20:25 AM 32.6572 -94.7533 115° Southeast 444 511 33,100 1,400 Climbing Fort Worth Center
Tue 07:21:25 AM 32.5856 -94.6250 124° Southeast 443 510 34,400 1,400 Climbing Fort Worth Center
Tue 07:22:25 AM 32.5028 -94.4797 124° Southeast 468 539 35,900 1,450 Climbing Fort Worth Center
Tue 07:23:25 AM 32.4331 -94.3564 124° Southeast 473 544 37,300 1,100 Climbing Fort Worth Center
Tue 07:24:25 AM 32.3608 -94.2261 123° Southeast 467 537 38,100 800 Climbing Fort Worth Center
Tue 07:25:25 AM 32.2908 -94.1006 123° Southeast 467 537 38,900 271 Climbing Fort Worth Center
Tue 07:27:44 AM 32.1281 -93.8089 123° Southeast 472 543 39,000 30 Climbing Houston Center
Tue 07:28:45 AM 32.0542 -93.6794 124° Southeast 474 545 39,000  Level Houston Center
Tue 07:29:46 AM 31.9786 -93.5533 125° Southeast 474 545 39,000  Level Houston Center
Tue 07:30:47 AM 31.9047 -93.4250 124° Southeast 473 544 39,000  Level Houston Center
Tue 07:31:48 AM 31.8333 -93.2950 123° Southeast 475 547 39,000  Level Houston Center
Tue 07:32:49 AM 31.7569 -93.1681 125° Southeast 476 548 39,000  Level Houston Center
Tue 07:33:50 AM 31.6822 -93.0378 124° Southeast 479 551 39,000  Level Houston Center
Tue 07:34:51 AM 31.6078 -92.9083 124° Southeast 479 551 39,000  Level Houston Center
Tue 07:35:52 AM 31.5336 -92.7828 125° Southeast 476 548 39,000  Level Houston Center
Tue 07:36:53 AM 31.4586 -92.6533 124° Southeast 473 544 39,000  Level Houston Center
Tue 07:37:54 AM 31.3844 -92.5292 125° Southeast 473 544 39,000  Level Houston Center
Tue 07:38:55 AM 31.2936 -92.3753 125° Southeast 475 547 39,000  Level Houston Center
Tue 07:40:00 AM 31.1977 -92.2672 124° Southeast  Level FlightAware Approximate
Tue 07:40:58 AM 31.1456 -92.1250 124° Southeast 466 536 39,000  Level Houston Center
Tue 07:41:59 AM 31.0817 -92.0158 124° Southeast 466 536 39,000  Level Houston Center
Tue 07:43:00 AM 30.9914 -91.8650 125° Southeast 472 543 39,000  Level Houston Center
Tue 07:44:01 AM 30.9172 -91.7403 125° Southeast 469 540 39,000  Level Houston Center
Tue 07:45:02 AM 30.8419 -91.6156 125° Southeast 471 542 39,000  Level Houston Center
Tue 07:46:04 AM 30.7661 -91.4908 125° Southeast 471 542 39,000  Level Houston Center
Tue 07:47:05 AM 30.6964 -91.3733 125° Southeast 472 543 39,000  Level Houston Center
Tue 07:48:06 AM 30.6219 -91.2494 125° Southeast 470 541 39,000  Level Houston Center
Tue 07:49:07 AM 30.5469 -91.1253 125° Southeast 470 541 39,000  Level Houston Center
Tue 07:50:09 AM 30.4550 -90.9781 126° Southeast 471 542 39,000  Level Houston Center
Tue 07:51:10 AM 30.3792 -90.8542 125° Southeast 472 543 39,000  Level Houston Center
Tue 07:52:11 AM 30.3022 -90.7311 126° Southeast 474 545 39,000  Level Houston Center
Tue 07:53:13 AM 30.2264 -90.6078 125° Southeast 474 545 39,000  Level Houston Center
Tue 07:54:14 AM 30.1506 -90.4847 125° Southeast 474 545 39,000  Level Houston Center
Tue 07:55:15 AM 30.0739 -90.3628 126° Southeast 473 544 39,000  Level Houston Center
Tue 07:56:17 AM 29.9969 -90.2389 126° Southeast 478 550 39,000  Level Houston Center
Tue 07:57:18 AM 29.9047 -90.0914 126° Southeast 477 549 39,000  Level Houston Center
Tue 07:58:19 AM 29.8275 -89.9700 126° Southeast 475 547 39,000  Level Houston Center
Tue 07:59:21 AM 29.7394 -89.8547 131° Southeast 480 552 39,000  Level Houston Center
Tue 08:00:22 AM 29.6539 -89.7394 130° Southeast 478 550 39,000  Level Houston Center
Tue 08:01:23 AM 29.5683 -89.6228 130° Southeast 479 551 39,000  Level Houston Center
Tue 08:02:25 AM 29.4828 -89.5053 130° Southeast 483 556 39,000  Level Houston Center
Tue 08:03:26 AM 29.3967 -89.3892 130° Southeast 479 551 39,000  Level Houston Center
Tue 08:04:27 AM 29.3103 -89.2722 130° Southeast 481 554 39,000  Level Houston Center
Tue 08:05:29 AM 29.2261 -89.1164 122° Southeast 485 558 39,000  Level Houston Center
Tue 08:06:30 AM 29.1747 -88.9728 112° Southeast 487 560 39,000  Level Houston Center
Tue 08:07:31 AM 29.1217 -88.8322 113° Southeast 486 559 39,000  Level Houston Center
Tue 08:08:33 AM 29.0681 -88.6897 113° Southeast 490 564 39,000  Level Houston Center
Tue 08:09:34 AM 29.0150 -88.5472 113° Southeast 491 565 39,000  Level Houston Center
Tue 08:10:36 AM 28.9586 -88.4058 114° Southeast 493 567 39,000  Level Houston Center
Tue 08:11:37 AM 28.9044 -88.2636 113° Southeast 491 565 39,000  Level Houston Center
Tue 08:12:38 AM 28.8478 -88.1211 114° Southeast 494 568 39,000  Level Houston Center
Tue 08:13:40 AM 28.7825 -87.9536 114° Southeast 496 571 39,000  Level Houston Center
Tue 08:14:41 AM 28.7261 -87.8100 114° Southeast 499 574 39,000  Level Houston Center
Tue 08:15:43 AM 28.6692 -87.6667 114° Southeast 500 575 39,000  Level Houston Center
Tue 08:16:44 AM 28.6128 -87.5233 114° Southeast 499 574 39,000  Level Houston Center
Tue 08:17:46 AM 28.5556 -87.3797 114° Southeast 502 578 39,000  Level Houston Center
Tue 08:18:47 AM 28.4975 -87.2356 115° Southeast 505 581 39,000  Level Houston Center
Tue 08:19:49 AM 28.4408 -87.0928 114° Southeast 500 575 39,000  Level Houston Center
Tue 08:20:50 AM 28.3717 -86.9217 115° Southeast 498 573 39,000  Level Houston Center
Tue 08:21:58 AM 28.3144 -86.7803 115° Southeast 495 570 39,000  Level Jacksonville Center
Tue 08:22:58 AM 28.2581 -86.6414 115° Southeast 489 563 39,000  Level Jacksonville Center
Tue 08:23:58 AM 28.1975 -86.4933 115° Southeast 495 570 39,000  Level Jacksonville Center
Tue 08:24:58 AM 28.1428 -86.3594 115° Southeast 487 560 39,000  Level Jacksonville Center
Tue 08:25:58 AM 28.0878 -86.2306 116° Southeast 479 551 39,000  Level Jacksonville Center
Tue 08:26:58 AM 28.0289 -86.0853 115° Southeast 479 551 39,000  Level Jacksonville Center
Tue 08:27:58 AM 27.9717 -85.9494 115° Southeast 484 557 39,000  Level Jacksonville Center
Tue 08:28:58 AM 27.9144 -85.8139 116° Southeast 477 549 39,000  Level Jacksonville Center
Tue 08:30:34 AM 27.8228 -85.5864 114° Southeast 475 547 39,000  Level Miami Center
Tue 08:31:34 AM 27.7664 -85.4483 115° Southeast 483 556 39,000  Level Miami Center
Tue 08:32:34 AM 27.7058 -85.3081 116° Southeast 497 572 39,000  Level Miami Center
Tue 08:33:34 AM 27.6397 -85.1581 116° Southeast 492 566 39,000  Level Miami Center
Tue 08:34:34 AM 27.5869 -85.0211 113° Southeast 487 560 39,000  Level Miami Center
Tue 08:35:34 AM 27.5219 -84.8808 118° Southeast 489 563 39,000  Level Miami Center
Tue 08:36:34 AM 27.4672 -84.7414 114° Southeast 494 568 39,000  Level Miami Center
Tue 08:37:34 AM 27.4058 -84.6039 117° Southeast 489 563 39,000  Level Miami Center
Tue 08:38:34 AM 27.3422 -84.4644 117° Southeast 489 563 39,000  Level Miami Center
Tue 08:39:34 AM 27.2889 -84.3278 114° Southeast 489 563 39,000  Level Miami Center
Tue 08:40:34 AM 27.2272 -84.1886 116° Southeast 489 563 39,000  Level Miami Center
Tue 08:41:34 AM 27.1653 -84.0542 117° Southeast 489 563 39,000  Level Miami Center
Tue 08:42:34 AM 27.1114 -83.9178 114° Southeast 489 563 39,000  Level Miami Center
Tue 08:43:34 AM 27.0514 -83.7814 116° Southeast 483 556 39,000  Level Miami Center
Tue 08:44:34 AM 26.9911 -83.6453 116° Southeast 483 556 39,000  Level Miami Center
Tue 08:45:34 AM 26.9306 -83.5114 117° Southeast 478 550 39,000  Level Miami Center
Tue 08:46:34 AM 26.8739 -83.3825 116° Southeast 478 550 39,000  Level Miami Center
Tue 08:47:34 AM 26.8131 -83.2489 117° Southeast 478 550 39,000 -250 Level Miami Center
Tue 08:48:34 AM 26.7561 -83.1181 116° Southeast 478 550 38,500 -1,000 Descending Miami Center
Tue 08:49:34 AM 26.6950 -82.9822 117° Southeast 478 550 37,000 -1,500 Descending Miami Center
Tue 08:50:34 AM 26.6361 -82.8492 116° Southeast 483 556 35,500 -1,550 Descending Miami Center
Tue 08:51:34 AM 26.5747 -82.7114 116° Southeast 483 556 33,900 -1,350 Descending Miami Center
Tue 08:52:34 AM 26.5133 -82.5761 117° Southeast 488 562 32,800 -1,250 Descending Miami Center
Tue 08:53:34 AM 26.4519 -82.4386 116° Southeast 488 562 31,400 -1,200 Descending Miami Center
Tue 08:54:34 AM 26.3961 -82.3156 117° Southeast 488 562 30,400 -950 Descending Miami Center
Tue 08:55:34 AM 26.3361 -82.1878 118° Southeast 483 556 29,500 -1,250 Descending Miami Center
Tue 08:56:34 AM 26.2783 -82.0556 116° Southeast 472 543 27,900 -1,850 Descending Miami Center
Tue 08:57:34 AM 26.2197 -81.9347 118° Southeast 461 531 25,800 -2,000 Descending Miami Center
Tue 08:58:34 AM 26.1678 -81.8078 114° Southeast 455 524 23,900 -2,000 Descending Miami Center
Tue 08:59:34 AM 26.1239 -81.6881 112° Southeast 434 499 21,800 -2,050 Descending Miami Center
Tue 09:00:34 AM 26.0861 -81.5661 109° East 417 480 19,800 -2,000 Descending Miami Center
Tue 09:01:34 AM 26.0481 -81.4514 110° East 404 465 17,800 -2,050 Descending Miami Center
Tue 09:02:34 AM 26.0158 -81.3417 108° East 391 450 15,700 -2,050 Descending Miami Center
Tue 09:03:34 AM 25.9794 -81.2317 110° East 380 437 13,700 -2,000 Descending Miami Center
Tue 09:04:34 AM 25.9450 -81.1264 110° East 370 426 11,700 -2,157 Descending Miami Center
Tue 09:05:03 AM 25.9194 -81.0700 117° Southeast 354 407 10,500 -1,400 Descending Miami Center
Tue 09:05:34 AM 25.9103 -81.0258 103° East 357 411 10,300 -492 Descending Miami Center
Tue 09:06:04 AM 25.8908 -80.9744 113° Southeast 311 358 10,000 -700 Descending Miami Center
Tue 09:06:34 AM 25.8814 -80.9394 107° East 333 383 9,600 -1,279 Descending Miami Center
Tue 09:07:05 AM 25.8619 -80.8881 113° Southeast 275 316 8,700 -1,300 Descending Miami Center
Tue 09:07:34 AM 25.8586 -80.8578 97° East 299 344 8,300 -1,355 Descending Miami Center
Tue 09:08:07 AM 25.8433 -80.8044 108° East 274 315 7,300 -1,400 Descending Miami Center
Tue 09:08:34 AM 25.8400 -80.7719 96° East 283 326 6,900 -1,082 Descending Miami Center
Tue 09:09:08 AM 25.8289 -80.7231 104° East 271 312 6,200 -1,100 Descending Miami Center
Tue 09:09:34 AM 25.8233 -80.6928 102° East 278 320 5,800 -1,116 Descending Miami Center
Tue 09:09:51 AM 25.8178 -80.6697 105° East 261 300 5,400 -1,200 Descending Miami Center
Tue 09:10:34 AM 25.8086 -80.6186 101° East 260 299 4,600 -1,279 Descending Miami Center
Tue 09:10:52 AM 25.8008 -80.5883 106° East 251 289 4,100 -1,300 Descending Miami Center
Tue 09:11:34 AM 25.7939 -80.5419 99° East 254 292 3,300 -1,143 Descending Miami Center

Login

Don't have an account? Register now (free) for customized features, flight alerts, and more!